createdAt,value
2023-03-23T00:01:24.176Z,99557.38
2023-03-23T00:03:29.841Z,99556.66
2023-03-23T00:05:34.874Z,99553.23
2023-03-23T00:07:40.553Z,99554.1
2023-03-23T00:09:45.549Z,99558.41
2023-03-23T00:11:50.864Z,99561.69
2023-03-23T00:13:55.846Z,99565.95
2023-03-23T00:16:05.594Z,99563.27
2023-03-23T00:18:10.602Z,99568.63
2023-03-23T00:20:15.914Z,99562.24
2023-03-23T00:22:21.003Z,99562.98
2023-03-23T00:24:25.975Z,99566.95
2023-03-23T00:26:49.522Z,99558.41
2023-03-23T00:28:54.533Z,99559.38
2023-03-23T00:30:59.654Z,99554.02
2023-03-23T00:33:04.756Z,99549.47
2023-03-23T00:35:09.757Z,99551.23
2023-03-23T00:37:15.582Z,99554.44
2023-03-23T00:39:20.970Z,99553.41
2023-03-23T00:41:26.823Z,99557.74
2023-03-23T00:43:32.048Z,99555.72
2023-03-23T00:45:37.333Z,99558.5
2023-03-23T00:47:42.973Z,99555.06
2023-03-23T00:49:48.357Z,99554.16
2023-03-23T00:51:53.856Z,99551.46
2023-03-23T00:53:58.887Z,99552.8
2023-03-23T00:56:04.529Z,99543.36
2023-03-23T00:58:09.812Z,99542.59
2023-03-23T01:00:14.744Z,99546.39
2023-03-23T01:02:19.746Z,99540.48
2023-03-23T01:04:25.061Z,99538.02
2023-03-23T01:06:30.155Z,99533.72
2023-03-23T01:08:35.635Z,99541.81
2023-03-23T01:10:40.926Z,99539.77
2023-03-23T01:12:46.098Z,99536.95
2023-03-23T01:14:51.228Z,99536.27
2023-03-23T01:16:56.530Z,99535.53
2023-03-23T01:19:01.595Z,99532.38
2023-03-23T01:21:07.044Z,99530.31
2023-03-23T01:23:12.102Z,99527.78
2023-03-23T01:25:17.184Z,99529.92
2023-03-23T01:27:28.340Z,99528
2023-03-23T01:29:33.357Z,99527.25
2023-03-23T01:31:38.633Z,99526.77
2023-03-23T01:33:43.999Z,99519.72
2023-03-23T01:35:49.146Z,99521.86
2023-03-23T01:37:54.567Z,99518.48
2023-03-23T01:39:59.701Z,99516.64
2023-03-23T01:42:04.692Z,99514.36
2023-03-23T01:44:10.428Z,99518.85
2023-03-23T01:46:15.506Z,99517.64
2023-03-23T01:48:20.724Z,99517.84
2023-03-23T01:50:26.482Z,99520.52
2023-03-23T01:52:31.821Z,99514.88
2023-03-23T01:54:37.225Z,99510.17
2023-03-23T01:56:42.326Z,99505.98
2023-03-23T01:58:47.501Z,99507.59
2023-03-23T02:00:52.967Z,99498.73
2023-03-23T02:02:58.351Z,99499.87
2023-03-23T02:05:03.392Z,99498.89
2023-03-23T02:07:08.513Z,99498.58
2023-03-23T02:09:13.468Z,99494.84
2023-03-23T02:11:23.345Z,99493.38
2023-03-23T02:13:28.389Z,99490.54
2023-03-23T02:15:33.371Z,99489.8
2023-03-23T02:17:38.707Z,99487.91
2023-03-23T02:19:44.174Z,99484.55
2023-03-23T02:21:49.820Z,99482.23
2023-03-23T02:23:55.480Z,99479.11
2023-03-23T02:26:00.962Z,99481.7
2023-03-23T02:28:06.760Z,99475.7
2023-03-23T02:30:12.095Z,99478.17
2023-03-23T02:32:17.455Z,99479.77
2023-03-23T02:34:23.406Z,99479.56
2023-03-23T02:36:28.876Z,99476.6
2023-03-23T02:38:33.824Z,99474.22
2023-03-23T02:40:39.285Z,99472.38
2023-03-23T02:42:44.940Z,99472.97
2023-03-23T02:44:49.936Z,99474.23
2023-03-23T02:46:55.016Z,99480.67
2023-03-23T02:48:59.992Z,99478.24
2023-03-23T02:51:05.335Z,99473.7
2023-03-23T02:53:10.557Z,99476.25
2023-03-23T02:55:15.806Z,99469.16
2023-03-23T02:57:41.674Z,99473.46
2023-03-23T02:59:46.736Z,99476.7
2023-03-23T03:01:52.067Z,99478.78
2023-03-23T03:03:57.662Z,99474.66
2023-03-23T03:06:02.680Z,99480.34
2023-03-23T03:08:08.347Z,99475.02
2023-03-23T03:10:18.613Z,99470.5
2023-03-23T03:12:23.977Z,99469.76
2023-03-23T03:14:29.067Z,99468.29
2023-03-23T03:16:34.061Z,99468.36
2023-03-23T03:18:39.534Z,99466.12
2023-03-23T03:20:44.887Z,99461.3
2023-03-23T03:22:50.638Z,99457.75
2023-03-23T03:24:55.653Z,99453.45
2023-03-23T03:27:01.501Z,99458.38
2023-03-23T03:29:06.498Z,99452.09
2023-03-23T03:31:11.457Z,99453.25
2023-03-23T03:33:16.705Z,99445.23
2023-03-23T03:35:21.822Z,99447.17
2023-03-23T03:37:27.733Z,99445.91
2023-03-23T03:39:33.240Z,99445.08
2023-03-23T03:41:38.384Z,99438.23
2023-03-23T03:43:43.393Z,99445.46
2023-03-23T03:45:48.386Z,99439.82
2023-03-23T03:47:53.554Z,99444.63
2023-03-23T03:49:59.504Z,99441.05
2023-03-23T03:52:05.414Z,99441.29
2023-03-23T03:54:11.215Z,99443.56
2023-03-23T03:56:16.441Z,99441.72
2023-03-23T03:58:21.396Z,99441.27
2023-03-23T04:00:26.730Z,99441.02
2023-03-23T04:02:31.997Z,99440.08
2023-03-23T04:05:59.428Z,99435.93
2023-03-23T04:08:11.082Z,99441.98
2023-03-23T04:10:33.945Z,99440
2023-03-23T04:12:38.971Z,99439.67
2023-03-23T04:14:43.934Z,99434.08
2023-03-23T04:16:55.988Z,99436.76
2023-03-23T04:19:02.488Z,99441.19
2023-03-23T04:21:07.907Z,99440.06
2023-03-23T04:23:18.062Z,99434.14
2023-03-23T04:25:23.793Z,99437.77
2023-03-23T04:27:28.823Z,99438.02
2023-03-23T04:29:34.749Z,99442.23
2023-03-23T04:31:40.029Z,99442.32
2023-03-23T04:34:01.998Z,99440.98
2023-03-23T04:36:07.388Z,99436.26
2023-03-23T04:38:12.469Z,99439.47
2023-03-23T04:40:17.508Z,99434.75
2023-03-23T04:42:22.509Z,99435.67
2023-03-23T04:44:27.776Z,99436
2023-03-23T04:46:32.894Z,99437.53
2023-03-23T04:48:37.849Z,99439.22
2023-03-23T04:50:42.982Z,99440.44
2023-03-23T04:52:50.500Z,99437.5
2023-03-23T04:54:55.514Z,99433.22
2023-03-23T04:57:00.534Z,99433.11
2023-03-23T04:59:05.517Z,99427.06
2023-03-23T05:01:10.658Z,99427.3
2023-03-23T05:03:15.748Z,99420.08
2023-03-23T05:05:20.725Z,99420.41
2023-03-23T05:07:25.820Z,99423.36
2023-03-23T05:09:30.826Z,99423
2023-03-23T05:11:35.809Z,99426.45
2023-03-23T05:13:40.821Z,99423.72
2023-03-23T05:15:45.856Z,99423.92
2023-03-23T05:17:53.381Z,99429.3
2023-03-23T05:19:58.368Z,99421.98
2023-03-23T05:22:03.336Z,99424.38
2023-03-23T05:24:08.281Z,99421.92
2023-03-23T05:26:13.291Z,99422.14
2023-03-23T05:28:18.290Z,99418.25
2023-03-23T05:30:23.241Z,99420.5
2023-03-23T05:32:28.273Z,99421.23
2023-03-23T05:34:33.296Z,99418.33
2023-03-23T05:36:38.281Z,99414.88
2023-03-23T05:38:43.371Z,99416.78
2023-03-23T05:40:48.358Z,99419.52
2023-03-23T05:42:53.312Z,99418.28
2023-03-23T05:44:58.315Z,99418.5
2023-03-23T05:47:03.300Z,99424.03
2023-03-23T05:49:08.325Z,99423.86
2023-03-23T05:51:13.330Z,99425.1
2023-03-23T05:53:18.336Z,99433.17
2023-03-23T05:55:23.309Z,99427.72
2023-03-23T05:57:28.279Z,99427.3
2023-03-23T05:59:33.275Z,99420.71
2023-03-23T06:01:51.679Z,99408.28
2023-03-23T06:03:57.636Z,99407.53
2023-03-23T06:06:04.544Z,99408.47
2023-03-23T06:08:09.659Z,99409
2023-03-23T06:10:14.703Z,99408.53
2023-03-23T06:12:19.717Z,99405.55
2023-03-23T06:14:24.759Z,99395.33
2023-03-23T06:16:29.785Z,99402.44
2023-03-23T06:18:34.733Z,99400.78
2023-03-23T06:20:46.976Z,99401.38
2023-03-23T06:22:53.097Z,99398.93
2023-03-23T06:24:58.060Z,99396.44
2023-03-23T06:27:03.090Z,99394.22
2023-03-23T06:29:08.139Z,99397.58
2023-03-23T06:31:13.159Z,99395.25
2023-03-23T06:33:20.962Z,99396.42
2023-03-23T06:35:26.012Z,99391.16
2023-03-23T06:37:31.177Z,99386.65
2023-03-23T06:39:36.152Z,99388.13
2023-03-23T06:41:41.189Z,99386.91
2023-03-23T06:43:46.201Z,99387.7
2023-03-23T06:45:51.181Z,99388.06
2023-03-23T06:47:56.202Z,99390.05
2023-03-23T06:50:01.192Z,99386.92
2023-03-23T06:52:06.217Z,99384.88
2023-03-23T06:54:11.353Z,99382.55
2023-03-23T06:56:16.371Z,99386.39
2023-03-23T06:58:21.412Z,99379.03
2023-03-23T07:00:26.450Z,99386.3
2023-03-23T07:02:31.418Z,99391.61
2023-03-23T07:04:36.407Z,99391.48
2023-03-23T07:06:41.373Z,99387.75
2023-03-23T07:08:46.362Z,99389.77
2023-03-23T07:10:51.344Z,99388.76
2023-03-23T07:12:56.457Z,99393.88
2023-03-23T07:15:01.508Z,99396.08
2023-03-23T07:17:06.535Z,99398.73
2023-03-23T07:19:11.542Z,99391.98
2023-03-23T07:21:16.563Z,99397.19
2023-03-23T07:23:21.520Z,99395.09
2023-03-23T07:25:26.487Z,99393.52
2023-03-23T07:27:31.539Z,99393.72
2023-03-23T07:29:36.573Z,99385.97
2023-03-23T07:31:41.598Z,99387.67
2023-03-23T07:33:46.609Z,99384.98
2023-03-23T07:35:51.682Z,99387.2
2023-03-23T07:38:00.845Z,99391.92
2023-03-23T07:40:05.778Z,99385.66
2023-03-23T07:42:10.908Z,99393.33
2023-03-23T07:44:15.838Z,99389.42
2023-03-23T07:46:20.866Z,99385.06
2023-03-23T07:48:25.924Z,99386.77
2023-03-23T07:50:30.820Z,99383.44
2023-03-23T07:52:35.884Z,99380.08
2023-03-23T07:54:40.865Z,99384.05
2023-03-23T07:56:45.848Z,99382.23
2023-03-23T07:58:50.862Z,99382.09
2023-03-23T08:00:55.858Z,99378.95
2023-03-23T08:03:00.888Z,99375.83
2023-03-23T08:05:05.991Z,99379.71
2023-03-23T08:07:11.147Z,99387.14
2023-03-23T08:09:24.773Z,99386.58
2023-03-23T08:11:29.748Z,99389.72
2023-03-23T08:13:34.921Z,99386.25
2023-03-23T08:15:40.408Z,99377.89
2023-03-23T08:17:45.685Z,99381.84
2023-03-23T08:19:50.717Z,99375.27
2023-03-23T08:21:55.719Z,99370.17
2023-03-23T08:24:00.704Z,99359.16
2023-03-23T08:26:05.732Z,99357.98
2023-03-23T08:28:10.744Z,99355.5
2023-03-23T08:30:15.853Z,99353.39
2023-03-23T08:32:20.873Z,99363.94
2023-03-23T08:34:25.959Z,99364.38
2023-03-23T08:36:30.967Z,99367.02
2023-03-23T08:38:35.940Z,99371.59
2023-03-23T08:40:40.947Z,99368.8
2023-03-23T08:42:55.767Z,99368.23
2023-03-23T08:45:05.295Z,99372.34
2023-03-23T08:47:10.340Z,99382.7
2023-03-23T08:49:15.569Z,99387.77
2023-03-23T08:51:20.700Z,99378.45
2023-03-23T08:53:25.730Z,99380.13
2023-03-23T08:55:30.719Z,99379.63
2023-03-23T08:57:35.749Z,99382.77
2023-03-23T08:59:40.740Z,99377.54
2023-03-23T09:01:50.570Z,99380.89
2023-03-23T09:03:55.556Z,99382.22
2023-03-23T09:06:00.629Z,99380.81
2023-03-23T09:08:05.680Z,99381.06
2023-03-23T09:10:10.700Z,99381.22
2023-03-23T09:12:15.710Z,99390.95
2023-03-23T09:14:20.714Z,99395.89
2023-03-23T09:16:25.700Z,99393.83
2023-03-23T09:18:30.722Z,99386.07
2023-03-23T09:20:35.989Z,99381.19
2023-03-23T09:22:41.125Z,99381.23
2023-03-23T09:24:46.194Z,99384.23
2023-03-23T09:26:51.184Z,99384.7
2023-03-23T09:28:56.190Z,99388.01
2023-03-23T09:31:01.193Z,99382.64
2023-03-23T09:33:06.203Z,99391.64
2023-03-23T09:35:11.209Z,99393.92
2023-03-23T09:37:16.182Z,99387.5
2023-03-23T09:39:21.191Z,99397.14
2023-03-23T09:41:26.240Z,99394.24
2023-03-23T09:43:31.217Z,99396.45
2023-03-23T09:45:36.214Z,99401.64
2023-03-23T09:47:41.266Z,99397.34
2023-03-23T09:49:46.294Z,99404.89
2023-03-23T09:51:51.274Z,99408.22
2023-03-23T09:53:56.384Z,99411.52
2023-03-23T09:56:01.358Z,99397.63
2023-03-23T09:58:06.412Z,99407.07
2023-03-23T10:00:11.458Z,99396.28
2023-03-23T10:02:16.440Z,99403.2
2023-03-23T10:04:21.552Z,99404.03
2023-03-23T10:06:26.595Z,99405.09
2023-03-23T10:08:31.592Z,99388.78
2023-03-23T10:10:36.610Z,99391.91
2023-03-23T10:12:41.591Z,99394.94
2023-03-23T10:14:46.611Z,99396.8
2023-03-23T10:16:51.680Z,99395.59
2023-03-23T10:18:56.667Z,99403.45
2023-03-23T10:21:01.683Z,99397.69
2023-03-23T10:23:06.687Z,99402.56
2023-03-23T10:25:11.695Z,99399.13
2023-03-23T10:27:16.710Z,99417.63
2023-03-23T10:29:21.683Z,99397.02
2023-03-23T10:31:26.666Z,99410.23
2023-03-23T10:33:31.704Z,99410.69
2023-03-23T10:35:36.762Z,99404
2023-03-23T10:37:44.833Z,99412.53
2023-03-23T10:39:49.912Z,99413
2023-03-23T10:41:54.890Z,99412.48
2023-03-23T10:44:00.036Z,99421.48
2023-03-23T10:46:05.470Z,99415.08
2023-03-23T10:48:10.919Z,99424.41
2023-03-23T10:50:15.977Z,99421.94
2023-03-23T10:52:20.944Z,99420.39
2023-03-23T10:54:26.103Z,99414.44
2023-03-23T10:56:31.554Z,99420.35
2023-03-23T10:58:51.622Z,99423.56
2023-03-23T11:00:56.650Z,99419.02
2023-03-23T11:03:01.678Z,99415.55
2023-03-23T11:05:11.859Z,99423.56
2023-03-23T11:07:24.175Z,99423.97
2023-03-23T11:09:29.152Z,99421.67
2023-03-23T11:11:34.136Z,99422.36
2023-03-23T11:13:39.154Z,99419.03
2023-03-23T11:15:44.556Z,99424.78
2023-03-23T11:17:49.759Z,99427.59
2023-03-23T11:19:54.825Z,99430.53
2023-03-23T11:21:59.834Z,99431.84
2023-03-23T11:24:11.238Z,99440.54
2023-03-23T11:26:16.427Z,99426.64
2023-03-23T11:28:21.511Z,99425.91
2023-03-23T11:30:26.586Z,99430.27
2023-03-23T11:32:31.585Z,99422.11
2023-03-23T11:34:36.658Z,99432.92
2023-03-23T11:36:41.739Z,99429.26
2023-03-23T11:38:46.775Z,99434.3
2023-03-23T11:40:51.832Z,99433.65
2023-03-23T11:42:56.919Z,99436.49
2023-03-23T11:45:01.970Z,99440.94
2023-03-23T11:47:07.034Z,99443.22
2023-03-23T11:49:27.593Z,99441.64
2023-03-23T11:51:36.796Z,99440.39
2023-03-23T11:53:41.775Z,99442.5
2023-03-23T11:55:51.391Z,99431.25
2023-03-23T11:57:56.462Z,99438.05
2023-03-23T12:00:01.541Z,99445.16
2023-03-23T12:02:18.162Z,99444.58
2023-03-23T12:04:23.208Z,99445.36
2023-03-23T12:06:30.044Z,99448.81
2023-03-23T12:08:35.066Z,99441.61
2023-03-23T12:13:01.093Z,99436.95
2023-03-23T12:15:06.237Z,99444.45
2023-03-23T12:17:11.228Z,99442.59
2023-03-23T12:19:16.200Z,99440.81
2023-03-23T12:21:21.211Z,99442.13
2023-03-23T12:23:26.327Z,99442.28
2023-03-23T12:25:31.315Z,99448.11
2023-03-23T12:27:36.335Z,99441.95
2023-03-23T12:29:41.369Z,99443.63
2023-03-23T12:31:46.374Z,99440.19
2023-03-23T12:33:51.572Z,99441.05
2023-03-23T12:35:56.668Z,99438.78
2023-03-23T12:38:01.727Z,99440.89
2023-03-23T12:40:06.744Z,99438.78
2023-03-23T12:42:11.832Z,99430.89
2023-03-23T12:44:16.922Z,99440.54
2023-03-23T12:46:21.948Z,99435.56
2023-03-23T12:48:26.924Z,99439.67
2023-03-23T12:50:31.956Z,99432.5
2023-03-23T12:52:37.101Z,99434.64
2023-03-23T12:54:42.155Z,99436.02
2023-03-23T12:56:47.115Z,99436.05
2023-03-23T12:58:55.066Z,99432.27
2023-03-23T13:01:00.145Z,99435.02
2023-03-23T13:03:05.155Z,99436.04
2023-03-23T13:05:14.246Z,99430.64
2023-03-23T13:07:19.315Z,99431.48
2023-03-23T13:09:24.342Z,99434.61
2023-03-23T13:11:29.371Z,99432.58
2023-03-23T13:13:41.053Z,99423.56
2023-03-23T13:15:59.068Z,99432.39
2023-03-23T13:18:04.124Z,99431.36
2023-03-23T13:20:09.158Z,99434.78
2023-03-23T13:22:14.187Z,99437.8
2023-03-23T13:24:19.309Z,99435.6
2023-03-23T13:26:24.309Z,99428.8
2023-03-23T13:28:29.260Z,99424.93
2023-03-23T13:30:34.321Z,99428.63
2023-03-23T13:32:50.049Z,99430.22
2023-03-23T13:35:01.335Z,99425.89
2023-03-23T13:37:06.334Z,99429.48
2023-03-23T13:39:11.385Z,99431.29
2023-03-23T13:41:16.407Z,99431.62
2023-03-23T13:43:21.392Z,99433.3
2023-03-23T13:45:26.437Z,99433.53
2023-03-23T13:47:31.537Z,99431.38
2023-03-23T13:49:36.544Z,99427.21
2023-03-23T13:51:41.602Z,99433.67
2023-03-23T13:53:46.601Z,99425.38
2023-03-23T13:55:51.823Z,99429.85
2023-03-23T13:57:56.846Z,99432.69
2023-03-23T14:00:01.796Z,99433.28
2023-03-23T14:02:06.802Z,99429.07
2023-03-23T14:04:11.751Z,99430.05
2023-03-23T14:06:16.742Z,99426.16
2023-03-23T14:08:21.825Z,99425.72
2023-03-23T14:10:26.838Z,99434.64
2023-03-23T14:12:31.866Z,99434.52
2023-03-23T14:14:36.823Z,99429.12
2023-03-23T14:16:41.947Z,99435.16
2023-03-23T14:18:46.969Z,99438.77
2023-03-23T14:20:51.988Z,99441.95
2023-03-23T14:22:56.988Z,99436.41
2023-03-23T14:25:01.985Z,99437.53
2023-03-23T14:27:07.032Z,99435.05
2023-03-23T14:29:12.009Z,99431.73
2023-03-23T14:31:17.012Z,99426.12
2023-03-23T14:33:22.018Z,99427.22
2023-03-23T14:35:27.099Z,99427.73
2023-03-23T14:37:32.073Z,99428.21
2023-03-23T14:39:37.060Z,99423.8
2023-03-23T14:41:42.006Z,99419.84
2023-03-23T14:43:47.084Z,99416.61
2023-03-23T14:45:53.255Z,99417.44
2023-03-23T14:47:58.839Z,99422.63
2023-03-23T14:50:03.916Z,99426.53
2023-03-23T14:52:08.980Z,99427.63
2023-03-23T14:54:13.971Z,99427.48
2023-03-23T14:56:19.030Z,99421.83
2023-03-23T14:58:24.008Z,99420.66
2023-03-23T15:00:29.036Z,99426.06
2023-03-23T15:02:34.127Z,99426.52
2023-03-23T15:04:39.188Z,99430.68
2023-03-23T15:06:44.182Z,99430.81
2023-03-23T15:08:49.183Z,99428.23
2023-03-23T15:10:54.239Z,99426.71
2023-03-23T15:12:59.323Z,99430.88
2023-03-23T15:15:04.328Z,99425.1
2023-03-23T15:17:09.327Z,99425.51
2023-03-23T15:19:14.329Z,99418.34
2023-03-23T15:21:19.287Z,99409.31
2023-03-23T15:23:24.278Z,99412.86
2023-03-23T15:25:29.311Z,99405.86
2023-03-23T15:27:34.417Z,99399.94
2023-03-23T15:29:39.443Z,99394.34
2023-03-23T15:31:44.451Z,99394.34
2023-03-23T15:33:51.179Z,99391.58
2023-03-23T15:35:57.112Z,99397.22
2023-03-23T15:38:04.710Z,99392.98
2023-03-23T15:40:09.727Z,99397.27
2023-03-23T15:42:14.680Z,99396.39
2023-03-23T15:44:19.664Z,99403.47
2023-03-23T15:46:24.692Z,99406.86
2023-03-23T15:48:29.818Z,99409.36
2023-03-23T15:50:34.837Z,99404.92
2023-03-23T15:52:39.946Z,99399.41
2023-03-23T15:54:44.992Z,99399.86
2023-03-23T15:56:50.042Z,99402.94
2023-03-23T15:58:55.040Z,99403.16
2023-03-23T16:01:00.254Z,99409.37
2023-03-23T16:03:05.610Z,99407.12
2023-03-23T16:05:10.789Z,99407.09
2023-03-23T16:07:16.000Z,99401.81
2023-03-23T16:09:20.986Z,99393.28
2023-03-23T16:11:26.124Z,99401.98
2023-03-23T16:13:31.171Z,99410.22
2023-03-23T16:15:36.181Z,99402.81
2023-03-23T16:17:41.265Z,99406.05
2023-03-23T16:19:46.405Z,99401.97
2023-03-23T16:21:51.520Z,99411.48
2023-03-23T16:23:56.626Z,99408.05
2023-03-23T16:26:01.654Z,99411.05
2023-03-23T16:28:06.630Z,99415.66
2023-03-23T16:30:11.595Z,99413.91
2023-03-23T16:32:16.606Z,99412.88
2023-03-23T16:34:21.572Z,99418.32
2023-03-23T16:36:35.818Z,99421.53
2023-03-23T16:38:53.639Z,99420.39
2023-03-23T16:40:59.887Z,99418.23
2023-03-23T16:43:10.007Z,99420.79
2023-03-23T16:45:15.139Z,99419.94
2023-03-23T16:47:20.158Z,99425.21
2023-03-23T16:49:25.175Z,99425.63
2023-03-23T16:51:30.210Z,99425.03
2023-03-23T16:53:35.202Z,99423.77
2023-03-23T16:55:40.304Z,99426.84
2023-03-23T16:57:46.246Z,99429.38
2023-03-23T16:59:51.274Z,99434.01
2023-03-23T17:01:56.495Z,99432.61
2023-03-23T17:04:01.760Z,99438.55
2023-03-23T17:06:06.793Z,99441.59
2023-03-23T17:08:12.094Z,99445.53
2023-03-23T17:10:17.122Z,99438.95
2023-03-23T17:12:22.375Z,99444.38
2023-03-23T17:14:27.445Z,99447.48
2023-03-23T17:16:32.499Z,99451.05
2023-03-23T17:18:37.619Z,99454.75
2023-03-23T17:20:42.622Z,99457.44
2023-03-23T17:22:47.606Z,99454.19
2023-03-23T17:24:52.621Z,99450.69
2023-03-23T17:26:57.618Z,99451.37
2023-03-23T17:29:02.810Z,99451.86
2023-03-23T17:31:08.095Z,99453.23
2023-03-23T17:33:13.223Z,99454.52
2023-03-23T17:35:18.313Z,99454.23
2023-03-23T17:37:23.306Z,99456.44
2023-03-23T17:39:28.389Z,99457.25
2023-03-23T17:41:33.408Z,99456.3
2023-03-23T17:43:38.478Z,99450.45
2023-03-23T17:45:47.191Z,99455.42
2023-03-23T17:47:52.834Z,99459.22
2023-03-23T17:49:58.179Z,99461.1
2023-03-23T17:52:03.234Z,99460
2023-03-23T17:54:08.246Z,99465.47
2023-03-23T17:56:13.321Z,99463.33
2023-03-23T17:58:18.310Z,99471.16
2023-03-23T18:00:23.424Z,99467.16
2023-03-23T18:02:28.601Z,99470.78
2023-03-23T18:04:33.769Z,99473.55
2023-03-23T18:06:38.769Z,99476.17
2023-03-23T18:08:43.865Z,99481.22
2023-03-23T18:10:48.974Z,99486.26
2023-03-23T18:12:53.976Z,99497.6
2023-03-23T18:14:59.050Z,99493.88
2023-03-23T18:17:04.094Z,99484.37
2023-03-23T18:19:09.128Z,99477.98
2023-03-23T18:21:14.133Z,99475.2
2023-03-23T18:23:19.282Z,99480.27
2023-03-23T18:25:24.277Z,99481.21
2023-03-23T18:27:29.387Z,99476.31
2023-03-23T18:29:34.422Z,99481
2023-03-23T18:31:39.585Z,99487.84
2023-03-23T18:33:44.820Z,99488.11
2023-03-23T18:35:50.265Z,99490.34
2023-03-23T18:37:55.426Z,99489.78
2023-03-23T18:40:00.429Z,99492.3
2023-03-23T18:42:05.534Z,99498.87
2023-03-23T18:44:10.665Z,99502.55
2023-03-23T18:46:15.812Z,99504.3
2023-03-23T18:48:20.925Z,99509.42
2023-03-23T18:50:25.940Z,99514.7
2023-03-23T18:52:31.024Z,99518.38
2023-03-23T18:54:36.148Z,99517.56
2023-03-23T18:56:41.400Z,99516.02
2023-03-23T18:58:46.530Z,99517.69
2023-03-23T19:00:52.091Z,99518.27
2023-03-23T19:02:58.823Z,99521.06
2023-03-23T19:05:04.039Z,99517.28
2023-03-23T19:07:09.209Z,99517.58
2023-03-23T19:09:14.325Z,99514.88
2023-03-23T19:11:19.318Z,99512.72
2023-03-23T19:13:24.305Z,99510.66
2023-03-23T19:15:29.421Z,99510.54
2023-03-23T19:17:34.903Z,99502.83
2023-03-23T19:19:39.998Z,99498.37
2023-03-23T19:21:48.451Z,99502.19
2023-03-23T19:23:53.494Z,99500.49
2023-03-23T19:25:58.802Z,99504.48
2023-03-23T19:31:07.725Z,99510.8
2023-03-23T19:33:12.861Z,99514.84
2023-03-23T19:35:18.633Z,99513.59
2023-03-23T19:37:24.593Z,99509.87
2023-03-23T19:39:29.629Z,99515.2
2023-03-23T19:41:34.799Z,99515.72
2023-03-23T19:43:40.564Z,99516.65
2023-03-23T19:45:46.301Z,99516.52
2023-03-23T19:47:51.348Z,99518.48
2023-03-23T19:49:56.588Z,99517.7
2023-03-23T19:52:12.378Z,99511.73
2023-03-23T19:54:20.843Z,99508.38
2023-03-23T19:56:26.829Z,99510.92
2023-03-23T19:58:34.589Z,99506.09
2023-03-23T20:00:40.254Z,99512.36
2023-03-23T20:02:45.603Z,99521.55
2023-03-23T20:04:51.380Z,99524.06
2023-03-23T20:06:57.215Z,99526.45
2023-03-23T20:09:02.752Z,99526.58
2023-03-23T20:11:09.075Z,99532.38
2023-03-23T20:13:14.162Z,99534.71
2023-03-23T20:15:19.192Z,99540.21
2023-03-23T20:17:24.332Z,99544.88
2023-03-23T20:19:29.924Z,99544.5
2023-03-23T20:21:34.972Z,99540.98
2023-03-23T20:23:39.984Z,99542.47
2023-03-23T20:25:45.241Z,99542.33
2023-03-23T20:27:50.659Z,99537.76
2023-03-23T20:29:55.867Z,99541.77
2023-03-23T20:32:00.932Z,99540.27
2023-03-23T20:34:05.897Z,99538.83
2023-03-23T20:36:11.054Z,99544.88
2023-03-23T20:38:16.344Z,99544.81
2023-03-23T20:40:21.381Z,99550.88
2023-03-23T20:42:26.381Z,99548.71
2023-03-23T20:44:31.415Z,99549.69
2023-03-23T20:46:36.568Z,99552.41
2023-03-23T20:48:41.692Z,99545.71
2023-03-23T20:50:46.703Z,99544.09
2023-03-23T20:52:52.176Z,99539.89
2023-03-23T20:54:57.176Z,99543.39
2023-03-23T20:57:02.261Z,99541.85
2023-03-23T20:59:07.393Z,99542.8
2023-03-23T21:01:12.719Z,99540.64
2023-03-23T21:03:17.825Z,99540.09
2023-03-23T21:05:22.822Z,99535.74
2023-03-23T21:07:27.843Z,99537.28
2023-03-23T21:09:32.819Z,99541.72
2023-03-23T21:11:37.784Z,99540.57
2023-03-23T21:13:42.793Z,99539.33
2023-03-23T21:15:48.104Z,99544.44
2023-03-23T21:17:55.877Z,99545.83
2023-03-23T21:20:01.150Z,99547.08
2023-03-23T21:22:06.219Z,99542.94
2023-03-23T21:24:11.208Z,99549.7
2023-03-23T21:26:16.471Z,99551.38
2023-03-23T21:28:21.490Z,99552.58
2023-03-23T21:30:26.517Z,99553.94
2023-03-23T21:32:31.576Z,99555.47
2023-03-23T21:34:36.629Z,99565.17
2023-03-23T21:36:41.745Z,99557.67
2023-03-23T21:38:46.809Z,99557.55
2023-03-23T21:40:51.796Z,99560.52
2023-03-23T21:42:56.799Z,99563.17
2023-03-23T21:45:01.845Z,99559.73
2023-03-23T21:47:06.862Z,99558.8
2023-03-23T21:49:11.878Z,99555.23
2023-03-23T21:51:17.002Z,99554.86
2023-03-23T21:53:22.038Z,99550.21
2023-03-23T21:55:27.035Z,99554.16
2023-03-23T21:57:32.045Z,99553.05
2023-03-23T21:59:37.065Z,99550.13
2023-03-23T22:01:42.179Z,99544.84
2023-03-23T22:03:47.348Z,99548.97
2023-03-23T22:05:52.362Z,99548.06
2023-03-23T22:07:57.450Z,99542.94
2023-03-23T22:10:02.469Z,99545.98
2023-03-23T22:12:07.499Z,99546.84
2023-03-23T22:14:12.514Z,99551.23
2023-03-23T22:16:17.530Z,99544.85
2023-03-23T22:18:22.716Z,99541.87
2023-03-23T22:20:27.781Z,99547.66
2023-03-23T22:22:32.921Z,99547.31
2023-03-23T22:24:37.896Z,99545.52
2023-03-23T22:26:42.906Z,99545.23
2023-03-23T22:28:48.165Z,99536.17
2023-03-23T22:30:53.173Z,99542.64
2023-03-23T22:32:58.264Z,99541.88
2023-03-23T22:35:03.349Z,99539.22
2023-03-23T22:37:08.584Z,99538.91
2023-03-23T22:39:13.682Z,99547.38
2023-03-23T22:41:18.671Z,99543.61
2023-03-23T22:43:23.668Z,99546.28
2023-03-23T22:45:28.744Z,99543.07
2023-03-23T22:47:33.886Z,99539.38
2023-03-23T22:49:38.935Z,99541.26
2023-03-23T22:51:43.953Z,99543.27
2023-03-23T22:53:48.948Z,99540.77
2023-03-23T22:55:53.933Z,99545.1
2023-03-23T22:57:59.004Z,99542.5
2023-03-23T23:00:04.090Z,99537.85
2023-03-23T23:02:09.272Z,99536.66
2023-03-23T23:04:14.440Z,99532.67
2023-03-23T23:06:19.552Z,99536.94
2023-03-23T23:08:24.571Z,99531.26
2023-03-23T23:10:29.619Z,99532.69
2023-03-23T23:12:34.607Z,99532.98
2023-03-23T23:14:39.593Z,99527.91
2023-03-23T23:16:44.731Z,99525.41
2023-03-23T23:18:49.771Z,99526
2023-03-23T23:20:54.803Z,99527.45
2023-03-23T23:22:59.909Z,99524.75
2023-03-23T23:25:04.899Z,99525.5
2023-03-23T23:27:09.933Z,99526.37
2023-03-23T23:29:15.021Z,99526.05
2023-03-23T23:31:20.261Z,99528.05
2023-03-23T23:33:25.316Z,99526.12
2023-03-23T23:35:30.430Z,99521.89
2023-03-23T23:37:35.568Z,99522.92
2023-03-23T23:39:40.615Z,99515.91
2023-03-23T23:41:45.765Z,99509.73
2023-03-23T23:43:50.726Z,99511.48
2023-03-23T23:45:55.880Z,99514.69
2023-03-23T23:48:01.201Z,99513.11
2023-03-23T23:50:06.506Z,99509.39
2023-03-23T23:52:11.535Z,99510.17
2023-03-23T23:54:16.547Z,99507.87
2023-03-23T23:56:21.569Z,99506.88
2023-03-23T23:58:26.539Z,99507.87
